sensor_id;sensor_type;location;lat;lon;timestamp;P1;durP1;ratioP1;P2;durP2;ratioP2
20314;SDS011;10315;50.958;13.080;2023-05-02T00:06:07;18.20;;;9.57;;
20314;SDS011;10315;50.958;13.080;2023-05-02T00:16:10;18.73;;;10.70;;
20314;SDS011;10315;50.958;13.080;2023-05-02T00:26:13;15.47;;;8.93;;
20314;SDS011;10315;50.958;13.080;2023-05-02T00:36:14;16.13;;;9.13;;
20314;SDS011;10315;50.958;13.080;2023-05-02T00:46:18;14.67;;;10.07;;
20314;SDS011;10315;50.958;13.080;2023-05-02T00:56:20;20.33;;;10.20;;
20314;SDS011;10315;50.958;13.080;2023-05-02T01:06:27;19.77;;;9.87;;
20314;SDS011;10315;50.958;13.080;2023-05-02T01:16:33;15.37;;;9.83;;
20314;SDS011;10315;50.958;13.080;2023-05-02T01:26:50;18.33;;;9.60;;
20314;SDS011;10315;50.958;13.080;2023-05-02T01:37:08;17.47;;;10.50;;
20314;SDS011;10315;50.958;13.080;2023-05-02T01:47:12;17.17;;;9.87;;
20314;SDS011;10315;50.958;13.080;2023-05-02T01:57:15;23.53;;;10.07;;
20314;SDS011;10315;50.958;13.080;2023-05-02T02:07:18;15.70;;;9.67;;
20314;SDS011;10315;50.958;13.080;2023-05-02T02:17:23;16.50;;;10.20;;
20314;SDS011;10315;50.958;13.080;2023-05-02T02:27:27;16.87;;;9.77;;
20314;SDS011;10315;50.958;13.080;2023-05-02T02:37:31;19.47;;;10.23;;
20314;SDS011;10315;50.958;13.080;2023-05-02T02:47:37;20.33;;;10.60;;
20314;SDS011;10315;50.958;13.080;2023-05-02T02:57:46;18.63;;;10.20;;
20314;SDS011;10315;50.958;13.080;2023-05-02T03:07:51;19.07;;;9.00;;
20314;SDS011;10315;50.958;13.080;2023-05-02T03:17:54;17.00;;;8.60;;
20314;SDS011;10315;50.958;13.080;2023-05-02T03:27:58;17.20;;;8.50;;
20314;SDS011;10315;50.958;13.080;2023-05-02T03:38:01;13.57;;;8.33;;
20314;SDS011;10315;50.958;13.080;2023-05-02T03:48:03;14.67;;;8.23;;
20314;SDS011;10315;50.958;13.080;2023-05-02T03:58:06;13.13;;;7.90;;
20314;SDS011;10315;50.958;13.080;2023-05-02T04:08:08;13.90;;;8.50;;
20314;SDS011;10315;50.958;13.080;2023-05-02T04:18:11;16.50;;;8.17;;
20314;SDS011;10315;50.958;13.080;2023-05-02T04:28:13;13.17;;;8.13;;
20314;SDS011;10315;50.958;13.080;2023-05-02T04:38:19;12.10;;;7.93;;
20314;SDS011;10315;50.958;13.080;2023-05-02T04:48:20;14.50;;;7.80;;
20314;SDS011;10315;50.958;13.080;2023-05-02T04:58:23;11.93;;;7.90;;
20314;SDS011;10315;50.958;13.080;2023-05-02T05:08:26;12.77;;;7.37;;
20314;SDS011;10315;50.958;13.080;2023-05-02T05:18:29;12.77;;;6.93;;
20314;SDS011;10315;50.958;13.080;2023-05-02T05:28:31;12.73;;;8.23;;
20314;SDS011;10315;50.958;13.080;2023-05-02T05:38:34;14.53;;;7.80;;
20314;SDS011;10315;50.958;13.080;2023-05-02T05:48:36;12.40;;;6.77;;
20314;SDS011;10315;50.958;13.080;2023-05-02T05:58:39;13.37;;;6.47;;
20314;SDS011;10315;50.958;13.080;2023-05-02T06:08:43;9.60;;;6.00;;
20314;SDS011;10315;50.958;13.080;2023-05-02T06:18:46;11.77;;;6.47;;
20314;SDS011;10315;50.958;13.080;2023-05-02T06:28:47;7.50;;;5.63;;
20314;SDS011;10315;50.958;13.080;2023-05-02T06:38:50;7.57;;;5.20;;
20314;SDS011;10315;50.958;13.080;2023-05-02T06:48:52;6.85;;;4.85;;
20314;SDS011;10315;50.958;13.080;2023-05-02T06:58:55;7.47;;;4.32;;
20314;SDS011;10315;50.958;13.080;2023-05-02T07:08:56;7.60;;;4.80;;
20314;SDS011;10315;50.958;13.080;2023-05-02T07:18:59;7.05;;;4.18;;
20314;SDS011;10315;50.958;13.080;2023-05-02T07:29:03;6.82;;;4.20;;
20314;SDS011;10315;50.958;13.080;2023-05-02T07:39:07;3.63;;;3.00;;
20314;SDS011;10315;50.958;13.080;2023-05-02T07:49:08;5.53;;;3.55;;
20314;SDS011;10315;50.958;13.080;2023-05-02T07:59:11;6.55;;;4.45;;
20314;SDS011;10315;50.958;13.080;2023-05-02T08:09:13;7.68;;;5.47;;
20314;SDS011;10315;50.958;13.080;2023-05-02T08:19:16;8.10;;;4.47;;
20314;SDS011;10315;50.958;13.080;2023-05-02T08:29:17;12.98;;;6.43;;
20314;SDS011;10315;50.958;13.080;2023-05-02T08:39:20;13.77;;;7.60;;
20314;SDS011;10315;50.958;13.080;2023-05-02T08:49:23;18.53;;;8.37;;
20314;SDS011;10315;50.958;13.080;2023-05-02T08:59:27;14.77;;;8.60;;
20314;SDS011;10315;50.958;13.080;2023-05-02T09:09:28;19.33;;;9.83;;
20314;SDS011;10315;50.958;13.080;2023-05-02T09:19:33;16.77;;;9.67;;
20314;SDS011;10315;50.958;13.080;2023-05-02T09:29:34;17.58;;;9.55;;
20314;SDS011;10315;50.958;13.080;2023-05-02T09:39:39;13.13;;;8.38;;
20314;SDS011;10315;50.958;13.080;2023-05-02T09:49:41;15.43;;;9.50;;
20314;SDS011;10315;50.958;13.080;2023-05-02T09:59:53;18.10;;;9.43;;
20314;SDS011;10315;50.958;13.080;2023-05-02T10:09:56;16.60;;;9.07;;
20314;SDS011;10315;50.958;13.080;2023-05-02T10:20:02;14.80;;;8.90;;
20314;SDS011;10315;50.958;13.080;2023-05-02T10:30:06;15.20;;;8.77;;
20314;SDS011;10315;50.958;13.080;2023-05-02T10:40:11;18.27;;;8.80;;
20314;SDS011;10315;50.958;13.080;2023-05-02T10:50:13;14.63;;;7.97;;
20314;SDS011;10315;50.958;13.080;2023-05-02T11:00:23;13.85;;;8.43;;
20314;SDS011;10315;50.958;13.080;2023-05-02T11:10:25;14.88;;;9.07;;
20314;SDS011;10315;50.958;13.080;2023-05-02T11:20:29;12.82;;;8.57;;
20314;SDS011;10315;50.958;13.080;2023-05-02T11:30:38;16.55;;;9.32;;
20314;SDS011;10315;50.958;13.080;2023-05-02T11:40:49;15.75;;;9.82;;
20314;SDS011;10315;50.958;13.080;2023-05-02T11:50:53;14.25;;;9.45;;
20314;SDS011;10315;50.958;13.080;2023-05-02T12:00:57;12.55;;;8.30;;
20314;SDS011;10315;50.958;13.080;2023-05-02T12:10:59;12.73;;;8.38;;
20314;SDS011;10315;50.958;13.080;2023-05-02T12:21:02;14.15;;;8.32;;
20314;SDS011;10315;50.958;13.080;2023-05-02T12:31:09;14.23;;;8.55;;
20314;SDS011;10315;50.958;13.080;2023-05-02T12:41:13;12.80;;;8.93;;
20314;SDS011;10315;50.958;13.080;2023-05-02T12:51:21;13.02;;;9.52;;
20314;SDS011;10315;50.958;13.080;2023-05-02T13:01:25;14.10;;;9.48;;
20314;SDS011;10315;50.958;13.080;2023-05-02T13:11:26;14.38;;;10.15;;
20314;SDS011;10315;50.958;13.080;2023-05-02T13:21:29;9.90;;;6.75;;
20314;SDS011;10315;50.958;13.080;2023-05-02T13:31:31;8.93;;;6.18;;
20314;SDS011;10315;50.958;13.080;2023-05-02T13:41:34;10.57;;;7.07;;
20314;SDS011;10315;50.958;13.080;2023-05-02T13:51:36;10.98;;;7.00;;
20314;SDS011;10315;50.958;13.080;2023-05-02T14:01:39;11.05;;;6.32;;
20314;SDS011;10315;50.958;13.080;2023-05-02T14:11:40;11.23;;;6.60;;
20314;SDS011;10315;50.958;13.080;2023-05-02T14:21:44;9.07;;;5.05;;
20314;SDS011;10315;50.958;13.080;2023-05-02T14:31:46;6.72;;;4.40;;
20314;SDS011;10315;50.958;13.080;2023-05-02T14:41:49;5.65;;;4.18;;
20314;SDS011;10315;50.958;13.080;2023-05-02T14:51:51;6.70;;;4.22;;
20314;SDS011;10315;50.958;13.080;2023-05-02T15:01:54;7.63;;;4.50;;
20314;SDS011;10315;50.958;13.080;2023-05-02T15:11:56;10.17;;;4.93;;
20314;SDS011;10315;50.958;13.080;2023-05-02T15:22:10;13.95;;;5.22;;
20314;SDS011;10315;50.958;13.080;2023-05-02T15:32:12;10.88;;;4.40;;
20314;SDS011;10315;50.958;13.080;2023-05-02T15:42:15;8.07;;;5.50;;
20314;SDS011;10315;50.958;13.080;2023-05-02T15:52:20;9.37;;;4.90;;
20314;SDS011;10315;50.958;13.080;2023-05-02T16:02:23;14.03;;;5.03;;
20314;SDS011;10315;50.958;13.080;2023-05-02T16:12:24;13.40;;;6.03;;
20314;SDS011;10315;50.958;13.080;2023-05-02T16:22:27;10.43;;;5.20;;
20314;SDS011;10315;50.958;13.080;2023-05-02T16:32:29;9.07;;;4.20;;
20314;SDS011;10315;50.958;13.080;2023-05-02T16:42:32;6.97;;;4.60;;
20314;SDS011;10315;50.958;13.080;2023-05-02T16:52:34;9.87;;;4.17;;
20314;SDS011;10315;50.958;13.080;2023-05-02T17:02:38;9.40;;;3.90;;
20314;SDS011;10315;50.958;13.080;2023-05-02T17:12:39;8.70;;;3.90;;
20314;SDS011;10315;50.958;13.080;2023-05-02T17:22:44;10.07;;;4.07;;
20314;SDS011;10315;50.958;13.080;2023-05-02T17:32:45;11.30;;;4.17;;
20314;SDS011;10315;50.958;13.080;2023-05-02T17:42:48;14.47;;;5.17;;
20314;SDS011;10315;50.958;13.080;2023-05-02T17:52:50;7.93;;;3.60;;
20314;SDS011;10315;50.958;13.080;2023-05-02T18:02:53;5.77;;;3.63;;
20314;SDS011;10315;50.958;13.080;2023-05-02T18:12:54;8.17;;;4.13;;
20314;SDS011;10315;50.958;13.080;2023-05-02T18:22:57;12.63;;;4.20;;
20314;SDS011;10315;50.958;13.080;2023-05-02T18:33:00;7.73;;;4.30;;
20314;SDS011;10315;50.958;13.080;2023-05-02T18:43:03;9.40;;;5.13;;
20314;SDS011;10315;50.958;13.080;2023-05-02T18:53:04;9.07;;;3.73;;
20314;SDS011;10315;50.958;13.080;2023-05-02T19:03:07;9.07;;;4.10;;
20314;SDS011;10315;50.958;13.080;2023-05-02T19:13:09;10.00;;;4.00;;
20314;SDS011;10315;50.958;13.080;2023-05-02T19:33:38;9.67;;;4.10;;
20314;SDS011;10315;50.958;13.080;2023-05-02T19:43:43;8.97;;;3.60;;
20314;SDS011;10315;50.958;13.080;2023-05-02T19:53:47;9.77;;;4.20;;
20314;SDS011;10315;50.958;13.080;2023-05-02T20:03:50;8.33;;;4.17;;
20314;SDS011;10315;50.958;13.080;2023-05-02T20:13:52;9.27;;;3.60;;
20314;SDS011;10315;50.958;13.080;2023-05-02T20:23:55;8.67;;;3.90;;
20314;SDS011;10315;50.958;13.080;2023-05-02T20:33:57;8.80;;;5.20;;
20314;SDS011;10315;50.958;13.080;2023-05-02T20:44:00;16.27;;;4.23;;
20314;SDS011;10315;50.958;13.080;2023-05-02T20:54:02;13.13;;;3.87;;
20314;SDS011;10315;50.958;13.080;2023-05-02T21:04:06;11.50;;;3.90;;
20314;SDS011;10315;50.958;13.080;2023-05-02T21:14:07;8.10;;;4.33;;
20314;SDS011;10315;50.958;13.080;2023-05-02T21:24:10;12.37;;;4.47;;
20314;SDS011;10315;50.958;13.080;2023-05-02T21:34:12;8.90;;;4.53;;
20314;SDS011;10315;50.958;13.080;2023-05-02T21:44:15;6.90;;;4.30;;
20314;SDS011;10315;50.958;13.080;2023-05-02T21:54:16;11.10;;;4.57;;
20314;SDS011;10315;50.958;13.080;2023-05-02T22:04:19;12.27;;;4.43;;
20314;SDS011;10315;50.958;13.080;2023-05-02T22:14:21;12.20;;;5.80;;
20314;SDS011;10315;50.958;13.080;2023-05-02T22:24:24;11.17;;;5.67;;
20314;SDS011;10315;50.958;13.080;2023-05-02T22:34:33;10.67;;;5.60;;
20314;SDS011;10315;50.958;13.080;2023-05-02T22:44:36;14.27;;;6.00;;
20314;SDS011;10315;50.958;13.080;2023-05-02T22:54:37;16.53;;;5.60;;
20314;SDS011;10315;50.958;13.080;2023-05-02T23:04:40;13.07;;;6.10;;
20314;SDS011;10315;50.958;13.080;2023-05-02T23:14:43;16.83;;;6.27;;
20314;SDS011;10315;50.958;13.080;2023-05-02T23:24:46;17.00;;;7.03;;
20314;SDS011;10315;50.958;13.080;2023-05-02T23:34:48;9.80;;;4.63;;
20314;SDS011;10315;50.958;13.080;2023-05-02T23:44:50;18.07;;;5.70;;
20314;SDS011;10315;50.958;13.080;2023-05-02T23:54:54;9.77;;;5.70;;
